Time;durP1;ratioP1;P1;durP2;ratioP2;P2;SDS_P1;SDS_P2;PMS_P1;PMS_P2;Temp;Humidity;BMP_temperature;BMP_pressure;BME280_temperature;BME280_humidity;BME280_pressure;Samples;Min_cycle;Max_cycle;Signal;HPM_P1;HPM_P2
2022/09/25 00:01:26;;;;;;;9.73;7.03;;;;;;;-145.49;100.00;62790.56;4994093;28;20388;-84
2022/09/25 00:03:55;;;;;;;7.55;5.80;;;;;;;-145.49;100.00;62790.56;4991708;28;20030;-83
2022/09/25 00:06:23;;;;;;;8.45;7.28;;;;;;;-145.49;100.00;62790.56;4991588;28;20018;-83
2022/09/25 00:08:53;;;;;;;9.27;6.32;;;;;;;-145.49;100.00;62790.56;4975175;28;20042;-83
2022/09/25 00:11:23;;;;;;;9.98;5.85;;;;;;;-145.49;100.00;62790.56;4977406;28;20395;-83
2022/09/25 00:13:56;;;;;;;7.32;5.68;;;;;;;-145.49;100.00;62790.56;4987847;28;20058;-83
2022/09/25 00:16:28;;;;;;;10.75;7.07;;;;;;;-145.49;100.00;62790.56;4988249;28;20409;-83
2022/09/25 00:21:42;;;;;;;7.13;6.28;;;;;;;-145.49;100.00;62790.56;4990733;28;20035;-83
2022/09/25 00:24:12;;;;;;;10.50;6.40;;;;;;;-145.49;100.00;62790.56;4991815;28;20123;-83
2022/09/25 00:26:42;;;;;;;7.30;5.97;;;;;;;-145.49;100.00;62790.56;4991651;28;20034;-83
2022/09/25 00:29:16;;;;;;;7.13;5.25;;;;;;;-145.49;100.00;62790.56;4975081;28;20050;-83
2022/09/25 00:31:47;;;;;;;8.25;6.57;;;;;;;-145.49;100.00;62790.56;4984989;28;20038;-83
2022/09/25 00:34:20;;;;;;;8.50;6.47;;;;;;;-145.49;100.00;62790.56;4979209;28;20045;-83
2022/09/25 00:36:49;;;;;;;10.00;7.40;;;;;;;-145.49;100.00;62790.56;4988411;28;20046;-83
2022/09/25 00:39:24;;;;;;;6.85;5.63;;;;;;;-145.49;100.00;62790.56;4959347;28;20038;-83
2022/09/25 00:41:54;;;;;;;6.90;5.80;;;;;;;-145.49;100.00;62790.56;5011766;28;20396;-83
2022/09/25 00:44:55;;;;;;;8.88;6.82;;;;;;;-145.49;100.00;62790.56;4971643;28;20034;-84
2022/09/25 00:47:38;;;;;;;10.30;7.43;;;;;;;-145.49;100.00;62790.56;4990406;28;20038;-83
2022/09/25 00:50:20;;;;;;;7.68;6.50;;;;;;;-145.49;100.00;62790.56;4992092;28;20034;-84
2022/09/25 00:52:58;;;;;;;9.68;6.80;;;;;;;-145.49;100.00;62790.56;4985632;28;20049;-84
2022/09/25 00:55:24;;;;;;;11.57;7.95;;;;;;;-145.49;100.00;62790.56;4980673;28;20038;-84
2022/09/25 00:57:55;;;;;;;9.18;7.72;;;;;;;-145.49;100.00;62790.56;4990380;28;20047;-83
2022/09/25 01:00:24;;;;;;;13.35;8.00;;;;;;;-145.49;100.00;62790.56;4991050;28;20034;-84
2022/09/25 01:02:52;;;;;;;10.38;6.88;;;;;;;-145.49;100.00;62790.56;4989104;28;20484;-83
2022/09/25 01:05:25;;;;;;;;;;;;;;;-145.49;100.00;62790.56;4989440;28;20041;-83
2022/09/25 01:07:56;;;;;;;17.42;6.30;;;;;;;-145.49;100.00;62790.56;4991155;28;19914;-84
2022/09/25 01:10:22;;;;;;;10.00;7.22;;;;;;;-145.49;100.00;62790.56;4972231;28;20030;-83
2022/09/25 01:12:50;;;;;;;7.32;6.57;;;;;;;-145.49;100.00;62790.56;4968704;28;20038;-83
2022/09/25 01:15:30;;;;;;;7.25;6.40;;;;;;;-145.49;100.00;62790.56;4989278;28;20038;-83
2022/09/25 01:18:09;;;;;;;11.32;8.60;;;;;;;-145.49;100.00;62790.56;4990095;28;20038;-83
2022/09/25 01:20:52;;;;;;;10.65;9.45;;;;;;;-145.49;100.00;62790.56;4975625;28;20034;-84
2022/09/25 01:23:40;;;;;;;9.43;7.63;;;;;;;-145.49;100.00;62790.56;4972449;28;20400;-83
2022/09/25 01:26:54;;;;;;;10.77;7.28;;;;;;;-145.49;100.00;62790.56;4990180;28;20110;-84
2022/09/25 01:29:46;;;;;;;8.23;6.43;;;;;;;-145.49;100.00;62790.56;4971492;28;20031;-84
2022/09/25 01:32:22;;;;;;;17.17;10.10;;;;;;;-145.49;100.00;62790.56;4992210;28;20377;-84
2022/09/25 01:35:15;;;;;;;9.10;7.85;;;;;;;-145.49;100.00;62790.56;4989334;28;20045;-84
2022/09/25 01:37:50;;;;;;;11.02;7.28;;;;;;;-145.49;100.00;62790.56;5003115;28;20050;-84
2022/09/25 01:40:21;;;;;;;9.50;7.57;;;;;;;-145.49;100.00;62790.56;4970637;28;20389;-84
2022/09/25 01:42:55;;;;;;;8.02;6.88;;;;;;;-145.49;100.00;62790.56;4991410;28;20481;-85
2022/09/25 01:45:28;;;;;;;9.57;6.65;;;;;;;-145.49;100.00;62790.56;5002276;28;20412;-84
2022/09/25 01:48:01;;;;;;;12.63;7.20;;;;;;;-145.49;100.00;62790.56;4989420;28;20022;-84
2022/09/25 01:50:37;;;;;;;8.85;6.63;;;;;;;-145.49;100.00;62790.56;5006078;28;20041;-84
2022/09/25 01:53:13;;;;;;;7.95;6.53;;;;;;;-145.49;100.00;62790.56;4990548;28;20542;-83
2022/09/25 01:56:08;;;;;;;11.48;8.02;;;;;;;-145.49;100.00;62790.56;4991352;28;20041;-83
2022/09/25 01:58:50;;;;;;;9.13;7.38;;;;;;;-145.49;100.00;62790.56;4982640;28;20412;-84
2022/09/25 02:01:28;;;;;;;9.10;6.90;;;;;;;-145.49;100.00;62790.56;4987133;28;20034;-84
2022/09/25 02:04:27;;;;;;;9.32;8.30;;;;;;;-145.49;100.00;62790.56;4988157;28;20046;-83
2022/09/25 02:06:57;;;;;;;8.85;7.32;;;;;;;-145.49;100.00;62790.56;4997627;28;20034;-84
2022/09/25 02:09:38;;;;;;;7.05;6.35;;;;;;;-145.49;100.00;62790.56;4956967;28;20050;-84
2022/09/25 02:12:20;;;;;;;9.05;7.18;;;;;;;-145.49;100.00;62790.56;4990663;28;20034;-85
2022/09/25 02:14:56;;;;;;;9.40;7.65;;;;;;;-145.49;100.00;62790.56;4986321;28;20400;-85
2022/09/25 02:20:30;;;;;;;10.23;8.13;;;;;;;-145.49;100.00;62790.56;4989289;28;20034;-84
2022/09/25 02:23:07;;;;;;;7.05;6.35;;;;;;;-145.49;100.00;62790.56;4990602;28;20065;-84
2022/09/25 02:25:39;;;;;;;14.93;9.02;;;;;;;-145.49;100.00;62790.56;4988186;28;20508;-84
2022/09/25 02:28:05;;;;;;;21.98;7.78;;;;;;;-145.49;100.00;62790.56;4974377;28;20378;-85
2022/09/25 02:30:36;;;;;;;10.75;6.75;;;;;;;-145.49;100.00;62790.56;4989698;28;20030;-84
2022/09/25 02:33:05;;;;;;;8.95;6.97;;;;;;;-145.49;100.00;62790.56;4971375;28;20045;-84
2022/09/25 02:35:33;;;;;;;14.75;7.53;;;;;;;-145.49;100.00;62790.56;4978291;28;20030;-84
2022/09/25 02:38:00;;;;;;;10.80;8.23;;;;;;;-145.49;100.00;62790.56;4985756;28;20046;-85
2022/09/25 02:40:54;;;;;;;9.43;8.15;;;;;;;-145.49;100.00;62790.56;4990440;28;20042;-85
2022/09/25 02:43:31;;;;;;;9.73;8.00;;;;;;;-145.49;100.00;62790.56;4990658;28;20035;-84
2022/09/25 02:46:08;;;;;;;10.00;7.20;;;;;;;-145.49;100.00;62790.56;4990939;28;20046;-85
2022/09/25 02:48:49;;;;;;;11.20;6.90;;;;;;;-145.49;100.00;62790.56;4983120;28;20050;-85
2022/09/25 02:51:39;;;;;;;7.60;6.90;;;;;;;-145.49;100.00;62790.56;4985681;28;20392;-85
2022/09/25 02:54:21;;;;;;;7.75;6.95;;;;;;;-145.49;100.00;62790.56;4986477;28;20050;-85
2022/09/25 02:57:00;;;;;;;15.43;7.53;;;;;;;-145.49;100.00;62790.56;4990041;28;20053;-85
2022/09/25 02:59:33;;;;;;;10.07;8.30;;;;;;;-145.49;100.00;62790.56;4983417;28;20042;-85
2022/09/25 03:02:02;;;;;;;9.68;8.23;;;;;;;-145.49;100.00;62790.56;4974577;28;20037;-85
2022/09/25 03:04:37;;;;;;;10.07;7.80;;;;;;;-145.49;100.00;62790.56;4990222;28;20378;-85
2022/09/25 03:07:05;;;;;;;11.03;8.67;;;;;;;-145.49;100.00;62790.56;4990092;28;20030;-85
2022/09/25 03:09:39;;;;;;;10.68;8.25;;;;;;;-145.49;100.00;62790.56;4990157;28;20297;-85
2022/09/25 03:12:09;;;;;;;10.20;8.60;;;;;;;-145.49;100.00;62790.56;4995066;28;20038;-85
2022/09/25 03:14:38;;;;;;;15.93;7.63;;;;;;;-145.49;100.00;62790.56;4973198;28;20049;-85
2022/09/25 03:17:10;;;;;;;10.73;8.05;;;;;;;-145.49;100.00;62790.56;4968960;28;20030;-85
2022/09/25 03:19:38;;;;;;;10.48;7.68;;;;;;;-145.49;100.00;62790.56;4992852;28;20049;-85
2022/09/25 03:22:05;;;;;;;8.73;7.68;;;;;;;-145.49;100.00;62790.56;4992400;28;20049;-85
2022/09/25 03:24:33;;;;;;;11.88;8.23;;;;;;;-145.49;100.00;62790.56;4986677;28;20031;-85
2022/09/25 03:27:01;;;;;;;12.20;9.18;;;;;;;-145.49;100.00;62790.56;4972972;28;20046;-83
2022/09/25 03:29:29;;;;;;;9.38;7.57;;;;;;;-145.49;100.00;62790.56;4990338;28;20045;-82
2022/09/25 03:32:00;;;;;;;10.27;8.88;;;;;;;-145.49;100.00;62790.56;4976158;28;20502;-82
2022/09/25 03:34:29;;;;;;;8.45;6.55;;;;;;;-145.49;100.00;62790.56;4994641;28;20031;-82
2022/09/25 03:37:00;;;;;;;8.70;7.80;;;;;;;-145.49;100.00;62790.56;4992947;28;20038;-82
2022/09/25 03:39:26;;;;;;;9.70;8.30;;;;;;;-145.49;100.00;62790.56;4985119;28;20031;-82
2022/09/25 03:41:54;;;;;;;10.20;9.18;;;;;;;-145.49;100.00;62790.56;4990866;28;20076;-82
2022/09/25 03:44:20;;;;;;;10.32;8.75;;;;;;;-145.49;100.00;62790.56;4993319;28;20050;-82
2022/09/25 03:46:51;;;;;;;11.07;8.90;;;;;;;-145.49;100.00;62790.56;4986564;28;20038;-82
2022/09/25 03:49:20;;;;;;;9.63;8.32;;;;;;;-145.49;100.00;62790.56;4991860;28;20054;-82
2022/09/25 03:51:46;;;;;;;13.20;9.75;;;;;;;-145.49;100.00;62790.56;4989763;28;20041;-82
2022/09/25 03:54:16;;;;;;;15.98;10.60;;;;;;;-145.49;100.00;62790.56;4977663;28;20030;-82
2022/09/25 03:56:43;;;;;;;13.95;10.77;;;;;;;-145.49;100.00;62790.56;4977701;28;20050;-82
2022/09/25 03:59:11;;;;;;;14.18;11.27;;;;;;;-145.49;100.00;62790.56;4992622;28;20041;-83
2022/09/25 04:01:40;;;;;;;15.38;11.07;;;;;;;-145.49;100.00;62790.56;5016122;28;20049;-82
2022/09/25 04:04:13;;;;;;;14.90;8.85;;;;;;;-145.49;100.00;62790.56;5015079;28;20038;-83
2022/09/25 04:06:41;;;;;;;10.55;8.52;;;;;;;-145.49;100.00;62790.56;5012893;28;20105;-84
2022/09/25 04:09:12;;;;;;;13.38;9.05;;;;;;;-145.49;100.00;62790.56;4994441;28;20038;-84
2022/09/25 04:11:42;;;;;;;14.43;9.20;;;;;;;-145.49;100.00;62790.56;4984131;28;20126;-84
2022/09/25 04:14:19;;;;;;;12.00;10.65;;;;;;;-145.49;100.00;62790.56;4991664;28;20034;-83
2022/09/25 04:16:47;;;;;;;15.20;11.70;;;;;;;-145.49;100.00;62790.56;4973359;28;20404;-84
2022/09/25 04:19:14;;;;;;;15.38;9.05;;;;;;;-145.49;100.00;62790.56;4994517;28;20038;-84
2022/09/25 04:21:42;;;;;;;11.55;8.55;;;;;;;-145.49;100.00;62790.56;4974613;28;20041;-84
2022/09/25 04:26:59;;;;;;;12.23;8.75;;;;;;;-145.49;100.00;62790.56;4988116;28;20030;-83
2022/09/25 04:29:27;;;;;;;10.60;8.05;;;;;;;-145.49;100.00;62790.56;4970288;28;20039;-84
2022/09/25 04:34:46;;;;;;;11.80;8.18;;;;;;;-145.49;100.00;62790.56;4995067;28;20042;-84
2022/09/25 04:37:12;;;;;;;13.38;9.82;;;;;;;-145.49;100.00;62790.56;4991954;28;20038;-84
2022/09/25 04:39:43;;;;;;;11.15;9.07;;;;;;;-145.49;100.00;62790.56;4986100;28;20504;-83
2022/09/25 04:42:12;;;;;;;17.35;9.98;;;;;;;-145.49;100.00;62790.56;4973822;28;20037;-84
2022/09/25 04:44:38;;;;;;;15.35;9.20;;;;;;;-145.49;100.00;62790.56;4992729;28;20273;-85
2022/09/25 04:47:04;;;;;;;9.15;8.10;;;;;;;-145.49;100.00;62790.56;4988895;28;20527;-84
2022/09/25 04:49:36;;;;;;;8.85;7.65;;;;;;;-145.49;100.00;62790.56;4974941;28;20038;-84
2022/09/25 04:52:05;;;;;;;11.13;9.23;;;;;;;-145.49;100.00;62790.56;4996953;28;20030;-84
2022/09/25 04:54:33;;;;;;;13.32;8.88;;;;;;;-145.49;100.00;62790.56;4990113;28;20400;-84
2022/09/25 04:57:02;;;;;;;11.68;8.05;;;;;;;-145.49;100.00;62790.56;4975705;28;20679;-84
2022/09/25 04:59:32;;;;;;;16.45;10.18;;;;;;;-145.49;100.00;62790.56;4990984;28;20514;-85
2022/09/25 05:01:59;;;;;;;12.35;9.85;;;;;;;-145.49;100.00;62790.56;4977344;28;20053;-84
2022/09/25 05:04:30;;;;;;;11.68;8.70;;;;;;;-145.49;100.00;62790.56;5005368;23;20050;-76
2022/09/25 05:06:56;;;;;;;12.23;9.95;;;;;;;-145.49;100.00;62790.56;5003760;28;20036;-75
2022/09/25 05:09:22;;;;;;;12.23;9.10;;;;;;;-145.49;100.00;62790.56;5005296;28;20039;-75
2022/09/25 05:11:53;;;;;;;10.15;8.50;;;;;;;-145.49;100.00;62790.56;4989956;28;20046;-75
2022/09/25 05:14:19;;;;;;;11.43;9.48;;;;;;;-145.49;100.00;62790.56;4970417;28;20038;-75
2022/09/25 05:16:46;;;;;;;13.27;10.02;;;;;;;-145.49;100.00;62790.56;4986471;28;20061;-75
2022/09/25 05:19:14;;;;;;;10.40;8.85;;;;;;;-145.49;100.00;62790.56;4963355;28;20039;-75
2022/09/25 05:21:44;;;;;;;13.52;9.20;;;;;;;-145.49;100.00;62790.56;4972642;28;20378;-75
2022/09/25 05:24:12;;;;;;;16.17;10.70;;;;;;;-145.49;100.00;62790.56;4986225;28;20046;-75
2022/09/25 05:26:39;;;;;;;14.60;9.60;;;;;;;-145.49;100.00;62790.56;4987320;28;20040;-75
2022/09/25 05:29:06;;;;;;;13.25;10.57;;;;;;;-145.49;100.00;62790.56;4969791;28;20035;-75
2022/09/25 05:31:32;;;;;;;12.63;10.95;;;;;;;-145.49;100.00;62790.56;4970338;28;20043;-75
2022/09/25 05:33:58;;;;;;;15.30;10.93;;;;;;;-145.49;100.00;62790.56;4972037;28;21857;-75
2022/09/25 05:36:24;;;;;;;14.70;10.15;;;;;;;-145.49;100.00;62790.56;4976560;28;20041;-75
2022/09/25 05:38:51;;;;;;;13.65;11.13;;;;;;;-145.49;100.00;62790.56;4970931;28;20034;-74
2022/09/25 05:41:17;;;;;;;13.10;11.48;;;;;;;-145.49;100.00;62790.56;4981326;28;20491;-75
2022/09/25 05:43:49;;;;;;;13.38;10.90;;;;;;;-145.49;100.00;62790.56;4972774;28;20054;-75
2022/09/25 05:46:15;;;;;;;14.73;12.20;;;;;;;-145.49;100.00;62790.56;4951749;28;20035;-74
2022/09/25 05:48:43;;;;;;;13.25;10.70;;;;;;;-145.49;100.00;62790.56;4967792;28;20045;-74
2022/09/25 05:51:12;;;;;;;12.35;8.73;;;;;;;-145.49;100.00;62790.56;4971973;28;20042;-75
2022/09/25 05:53:40;;;;;;;16.02;11.05;;;;;;;-145.49;100.00;62790.56;4972117;28;20495;-75
2022/09/25 05:56:09;;;;;;;14.98;11.05;;;;;;;-145.49;100.00;62790.56;4968779;28;20045;-75
2022/09/25 05:58:38;;;;;;;21.42;11.07;;;;;;;-145.49;100.00;62790.56;4968207;28;20047;-74
2022/09/25 06:01:05;;;;;;;15.10;11.27;;;;;;;-145.49;100.00;62790.56;4987552;28;20038;-75
2022/09/25 06:03:31;;;;;;;15.25;11.82;;;;;;;-145.49;100.00;62790.56;4971383;28;20034;-74
2022/09/25 06:06:03;;;;;;;12.57;9.68;;;;;;;-145.49;100.00;62790.56;4968864;28;20050;-74
2022/09/25 06:08:31;;;;;;;12.85;10.77;;;;;;;-145.49;100.00;62790.56;4973986;28;20057;-74
2022/09/25 06:11:03;;;;;;;13.02;10.18;;;;;;;-145.49;100.00;62790.56;4972162;28;20042;-75
2022/09/25 06:13:35;;;;;;;15.38;11.57;;;;;;;-145.49;100.00;62790.56;4972179;28;20041;-75
2022/09/25 06:16:18;;;;;;;15.85;10.93;;;;;;;-145.49;100.00;62790.56;4971995;28;20033;-75
2022/09/25 06:18:49;;;;;;;14.05;11.02;;;;;;;-145.49;100.00;62790.56;4969665;28;20050;-75
2022/09/25 06:21:16;;;;;;;15.93;12.95;;;;;;;-145.49;100.00;62790.56;4946108;28;20047;-75
2022/09/25 06:23:48;;;;;;;13.52;11.38;;;;;;;-145.49;100.00;62790.56;4967533;28;20042;-75
2022/09/25 06:26:14;;;;;;;13.10;10.60;;;;;;;-145.49;100.00;62790.56;4967177;28;20041;-75
2022/09/25 06:28:42;;;;;;;14.07;12.57;;;;;;;-145.49;100.00;62790.56;4970703;28;20497;-75
2022/09/25 06:31:16;;;;;;;15.65;11.68;;;;;;;-145.49;100.00;62790.56;4970499;28;20436;-75
2022/09/25 06:33:45;;;;;;;15.35;11.25;;;;;;;-145.49;100.00;62790.56;4970963;28;20065;-75
2022/09/25 06:36:16;;;;;;;16.73;11.18;;;;;;;-145.49;100.00;62790.56;4975952;28;20042;-75
2022/09/25 06:38:45;;;;;;;13.75;9.77;;;;;;;-145.49;100.00;62790.56;4973024;28;20040;-74
2022/09/25 06:41:13;;;;;;;19.13;12.73;;;;;;;-145.49;100.00;62790.56;4952537;28;20416;-75
2022/09/25 06:43:40;;;;;;;13.88;11.48;;;;;;;-145.49;100.00;62790.56;4967979;28;20043;-75
2022/09/25 06:46:06;;;;;;;14.85;11.23;;;;;;;-145.49;100.00;62790.56;4971158;28;20039;-75
2022/09/25 06:48:32;;;;;;;12.43;10.13;;;;;;;-145.49;100.00;62790.56;4971180;28;20030;-75
2022/09/25 06:51:02;;;;;;;11.60;9.57;;;;;;;-145.49;100.00;62790.56;4973809;28;20041;-76
2022/09/25 06:53:28;;;;;;;10.80;8.60;;;;;;;-145.49;100.00;62790.56;4971882;28;20156;-75
2022/09/25 06:55:57;;;;;;;13.93;9.05;;;;;;;-145.49;100.00;62790.56;4974618;28;20045;-75
2022/09/25 06:58:26;;;;;;;11.23;8.77;;;;;;;-145.49;100.00;62790.56;4973895;28;20408;-75
2022/09/25 07:00:54;;;;;;;11.18;9.95;;;;;;;-145.49;100.00;62790.56;4970941;28;20432;-75
2022/09/25 07:06:12;;;;;;;13.63;10.40;;;;;;;-145.49;100.00;62790.56;4987187;28;20499;-76
2022/09/25 07:08:43;;;;;;;;;;;;;;;-145.49;100.00;62790.56;4975567;28;20042;-75
2022/09/25 07:11:16;;;;;;;14.65;10.55;;;;;;;-145.49;100.00;62790.56;4956212;28;19918;-75
2022/09/25 07:13:45;;;;;;;12.25;10.57;;;;;;;-145.49;100.00;62790.56;4988837;28;20043;-74
2022/09/25 07:16:15;;;;;;;14.18;11.68;;;;;;;-145.49;100.00;62790.56;4972782;28;20404;-75
2022/09/25 07:18:43;;;;;;;12.38;9.32;;;;;;;-145.49;100.00;62790.56;4972511;28;20043;-75
2022/09/25 07:21:12;;;;;;;16.52;10.23;;;;;;;-145.49;100.00;62790.56;4971261;28;20038;-75
2022/09/25 07:23:40;;;;;;;13.88;10.90;;;;;;;-145.49;100.00;62790.56;4970080;28;20073;-75
2022/09/25 07:26:20;;;;;;;13.88;10.82;;;;;;;-145.49;100.00;62790.56;4972918;28;20043;-75
2022/09/25 07:28:53;;;;;;;12.30;10.93;;;;;;;-145.49;100.00;62790.56;4972853;28;20039;-75
2022/09/25 07:31:24;;;;;;;12.77;10.32;;;;;;;-145.49;100.00;62790.56;4990506;28;20074;-74
2022/09/25 07:33:56;;;;;;;;;;;;;;;-145.49;100.00;62790.56;4976093;28;20034;-76
2022/09/25 07:36:24;;;;;;;14.68;10.82;;;;;;;-145.49;100.00;62790.56;4976227;28;19932;-75
2022/09/25 07:38:53;;;;;;;13.00;8.90;;;;;;;-145.49;100.00;62790.56;4975851;28;20404;-75
2022/09/25 07:41:21;;;;;;;18.65;10.13;;;;;;;-145.49;100.00;62790.56;4974993;28;20042;-75
2022/09/25 07:43:57;;;;;;;12.45;10.27;;;;;;;-145.49;100.00;62790.56;4976200;28;20049;-75
2022/09/25 07:46:24;;;;;;;10.75;9.43;;;;;;;-145.49;100.00;62790.56;4976323;28;20396;-74
2022/09/25 07:48:51;;;;;;;14.30;9.60;;;;;;;-145.49;100.00;62790.56;4992961;28;20031;-74
2022/09/25 07:51:22;;;;;;;11.57;9.93;;;;;;;-145.49;100.00;62790.56;4964026;28;20061;-75
2022/09/25 07:53:51;;;;;;;13.43;10.35;;;;;;;-145.49;100.00;62790.56;5002805;28;20035;-75
2022/09/25 07:56:17;;;;;;;12.35;9.75;;;;;;;-145.49;100.00;62790.56;4990026;28;20046;-75
2022/09/25 07:58:44;;;;;;;11.23;8.88;;;;;;;-145.49;100.00;62790.56;4976263;28;20055;-75
2022/09/25 08:01:12;;;;;;;11.65;9.80;;;;;;;-145.49;100.00;62790.56;4974223;28;20046;-75
2022/09/25 08:03:38;;;;;;;13.02;11.20;;;;;;;-145.49;100.00;62790.56;4968587;28;20038;-75
2022/09/25 08:06:11;;;;;;;13.40;10.90;;;;;;;-145.49;100.00;62790.56;4968065;28;20027;-75
2022/09/25 08:08:39;;;;;;;13.90;11.23;;;;;;;-145.49;100.00;62790.56;4969029;28;20054;-75
2022/09/25 08:11:10;;;;;;;17.02;10.55;;;;;;;-145.49;100.00;62790.56;4967478;28;20046;-75
2022/09/25 08:13:40;;;;;;;14.88;11.13;;;;;;;-145.49;100.00;62790.56;4972393;28;20038;-75
2022/09/25 08:16:12;;;;;;;15.23;11.88;;;;;;;-145.49;100.00;62790.56;4950445;28;20035;-76
2022/09/25 08:18:44;;;;;;;11.32;10.02;;;;;;;-145.49;100.00;62790.56;4972038;28;20065;-76
2022/09/25 08:21:15;;;;;;;16.83;11.35;;;;;;;-145.49;100.00;62790.56;4969317;28;20035;-74
2022/09/25 08:23:44;;;;;;;14.52;11.05;;;;;;;-145.49;100.00;62790.56;4971667;28;20050;-76
2022/09/25 08:26:10;;;;;;;16.40;12.73;;;;;;;-145.49;100.00;62790.56;4972268;28;20144;-75
2022/09/25 08:28:36;;;;;;;12.63;11.35;;;;;;;-145.49;100.00;62790.56;4972824;28;20062;-75
2022/09/25 08:31:03;;;;;;;12.70;9.88;;;;;;;-145.49;100.00;62790.56;4973624;28;20038;-76
2022/09/25 08:33:31;;;;;;;11.57;9.90;;;;;;;-145.49;100.00;62790.56;4969510;28;20473;-74
2022/09/25 08:35:59;;;;;;;11.98;9.00;;;;;;;-145.49;100.00;62790.56;4964833;28;20037;-74
2022/09/25 08:38:27;;;;;;;13.35;10.52;;;;;;;-145.49;100.00;62790.56;4986342;28;20038;-74
2022/09/25 08:41:06;;;;;;;8.93;7.60;;;;;;;-145.49;100.00;62790.56;4971931;28;22013;-74
2022/09/25 08:43:42;;;;;;;9.77;8.55;;;;;;;-145.49;100.00;62790.56;4970512;28;20126;-74
2022/09/25 08:49:11;;;;;;;10.75;9.07;;;;;;;-145.49;100.00;62790.56;4970766;28;20042;-74
2022/09/25 08:51:40;;;;;;;9.50;8.25;;;;;;;-145.49;100.00;62790.56;4986510;28;20030;-75
2022/09/25 08:54:09;;;;;;;10.48;7.72;;;;;;;-145.49;100.00;62790.56;4972741;28;20512;-74
2022/09/25 08:56:39;;;;;;;9.52;7.22;;;;;;;-145.49;100.00;62790.56;4971875;28;20038;-74
2022/09/25 08:59:35;;;;;;;8.82;7.65;;;;;;;-145.49;100.00;62790.56;4972054;28;20050;-75
2022/09/25 09:02:13;;;;;;;8.85;7.50;;;;;;;-145.49;100.00;62790.56;4981018;28;20058;-74
2022/09/25 09:05:00;;;;;;;10.95;8.10;;;;;;;-145.49;100.00;62790.56;4984139;28;20054;-75
2022/09/25 09:07:39;;;;;;;13.40;9.05;;;;;;;-145.49;100.00;62790.56;4971080;28;20071;-74
2022/09/25 09:10:51;;;;;;;10.68;9.13;;;;;;;-145.49;100.00;62790.56;4969958;28;20050;-75
2022/09/25 09:13:27;;;;;;;11.57;9.07;;;;;;;-145.49;100.00;62790.56;4967588;28;20050;-74
2022/09/25 09:16:19;;;;;;;9.00;6.95;;;;;;;-145.49;100.00;62790.56;4985741;28;20055;-74
2022/09/25 09:18:45;;;;;;;10.70;8.45;;;;;;;-145.49;100.00;62790.56;4966518;28;20042;-75
2022/09/25 09:21:11;;;;;;;10.25;9.30;;;;;;;-145.49;100.00;62790.56;4970270;28;20049;-74
2022/09/25 09:24:08;;;;;;;8.95;7.22;;;;;;;-145.49;100.00;62790.56;4968038;28;20515;-75
2022/09/25 09:26:53;;;;;;;12.65;9.65;;;;;;;-145.49;100.00;62790.56;4986419;28;20109;-74
2022/09/25 09:29:49;;;;;;;10.45;9.43;;;;;;;-145.49;100.00;62790.56;4970403;28;20023;-74
2022/09/25 09:32:26;;;;;;;10.68;8.25;;;;;;;-145.49;100.00;62790.56;4972568;28;20432;-74
2022/09/25 09:35:24;;;;;;;9.88;8.50;;;;;;;-145.49;100.00;62790.56;4969520;28;20058;-74
2022/09/25 09:38:13;;;;;;;10.88;9.35;;;;;;;-145.49;100.00;62790.56;4985285;28;20436;-74
2022/09/25 09:41:07;;;;;;;10.95;8.43;;;;;;;-145.49;100.00;62790.56;4965648;28;20051;-74
2022/09/25 09:43:42;;;;;;;11.50;9.38;;;;;;;-145.49;100.00;62790.56;4987574;28;20042;-75
2022/09/25 09:46:48;;;;;;;11.02;9.88;;;;;;;-145.49;100.00;62790.56;4967468;28;20492;-74
2022/09/25 09:49:35;;;;;;;10.43;9.35;;;;;;;-145.49;100.00;62790.56;4968983;28;20035;-74
2022/09/25 09:52:24;;;;;;;15.88;9.75;;;;;;;-145.49;100.00;62790.56;4964446;28;20078;-74
2022/09/25 09:55:19;;;;;;;12.98;10.40;;;;;;;-145.49;100.00;62790.56;4971517;28;20042;-75
2022/09/25 09:57:55;;;;;;;10.40;8.10;;;;;;;-145.49;100.00;62790.56;4965617;28;20051;-75
2022/09/25 10:00:23;;;;;;;12.18;11.02;;;;;;;-145.49;100.00;62790.56;4967042;28;20042;-75
2022/09/25 10:02:56;;;;;;;12.57;10.10;;;;;;;-145.49;100.00;62790.56;4969048;28;20045;-75
2022/09/25 10:05:45;;;;;;;10.05;8.40;;;;;;;-145.49;100.00;62790.56;4965896;28;20041;-74
2022/09/25 10:08:12;;;;;;;10.63;9.27;;;;;;;-145.49;100.00;62790.56;4961916;28;20042;-74
2022/09/25 10:10:41;;;;;;;9.10;8.15;;;;;;;-145.49;100.00;62790.56;4967872;28;20034;-74
2022/09/25 10:13:15;;;;;;;11.18;8.55;;;;;;;-145.49;100.00;62790.56;4977381;28;20396;-75
2022/09/25 10:16:04;;;;;;;8.75;6.82;;;;;;;-145.49;100.00;62790.56;4968723;28;20042;-74
2022/09/25 10:19:12;;;;;;;11.50;7.40;;;;;;;-145.49;100.00;62790.56;4962950;28;20043;-74
2022/09/25 10:21:46;;;;;;;7.35;6.65;;;;;;;-145.49;100.00;62790.56;4937149;28;20042;-74
2022/09/25 10:24:48;;;;;;;8.32;7.53;;;;;;;-145.49;100.00;62790.56;4982972;28;20038;-75
2022/09/25 10:27:27;;;;;;;8.82;6.28;;;;;;;-145.49;100.00;62790.56;4961196;28;20046;-74
2022/09/25 10:30:07;;;;;;;8.13;6.20;;;;;;;-145.49;100.00;62790.56;4952497;28;20042;-74
2022/09/25 10:32:54;;;;;;;9.43;8.27;;;;;;;-145.49;100.00;62790.56;4970924;28;20046;-74
2022/09/25 10:35:38;;;;;;;7.30;6.43;;;;;;;-145.49;100.00;62790.56;4968707;28;20030;-74
2022/09/25 10:38:17;;;;;;;8.52;6.50;;;;;;;-145.49;100.00;62790.56;4983126;28;20042;-74
2022/09/25 10:41:16;;;;;;;6.55;5.13;;;;;;;-145.49;100.00;62790.56;4976727;28;20039;-74
2022/09/25 10:43:58;;;;;;;6.45;4.57;;;;;;;-145.49;100.00;62790.56;4968579;28;20047;-74
2022/09/25 10:52:16;;;;;;;6.00;4.68;;;;;;;-145.49;100.00;62790.56;4971547;28;20031;-75
2022/09/25 10:54:44;;;;;;;4.97;4.45;;;;;;;-145.49;100.00;62790.56;4967118;28;20054;-75
2022/09/25 10:57:36;;;;;;;6.28;4.50;;;;;;;-145.49;100.00;62790.56;4984788;28;20035;-76
2022/09/25 11:00:17;;;;;;;6.00;4.72;;;;;;;-145.49;100.00;62790.56;4961325;28;20035;-75
2022/09/25 11:02:45;;;;;;;4.63;4.22;;;;;;;-145.49;100.00;62790.56;4965885;28;20042;-74
2022/09/25 11:05:20;;;;;;;7.07;4.72;;;;;;;-145.49;100.00;62790.56;4982771;23;20043;-83
2022/09/25 11:07:53;;;;;;;4.47;3.83;;;;;;;-145.49;100.00;62790.56;4985138;28;20038;-84
2022/09/25 11:10:22;;;;;;;4.82;4.15;;;;;;;-145.49;100.00;62790.56;4969543;28;20038;-83
2022/09/25 11:12:50;;;;;;;3.70;3.33;;;;;;;-145.49;100.00;62790.56;4986009;28;20039;-84
2022/09/25 11:15:19;;;;;;;5.80;4.20;;;;;;;-145.49;100.00;62790.56;4971686;28;20043;-83
2022/09/25 11:17:50;;;;;;;4.90;3.67;;;;;;;-145.49;100.00;62790.56;4980455;28;20046;-84
2022/09/25 11:20:28;;;;;;;4.57;4.13;;;;;;;-145.49;100.00;62790.56;4970097;28;20034;-83
2022/09/25 11:23:28;;;;;;;7.25;3.58;;;;;;;-145.49;100.00;62790.56;4971211;28;20047;-84
2022/09/25 11:26:07;;;;;;;5.47;3.72;;;;;;;-145.49;100.00;62790.56;4968191;28;20359;-83
2022/09/25 11:28:49;;;;;;;3.55;3.22;;;;;;;-145.49;100.00;62790.56;4967544;28;20045;-84
2022/09/25 11:31:39;;;;;;;5.10;3.97;;;;;;;-145.49;100.00;62790.56;4962727;28;20510;-83
2022/09/25 11:34:13;;;;;;;4.68;3.60;;;;;;;-145.49;100.00;62790.56;4971925;28;20042;-83
2022/09/25 11:36:47;;;;;;;6.03;3.47;;;;;;;-145.49;100.00;62790.56;4963086;28;20039;-83
2022/09/25 11:42:52;;;;;;;3.88;2.80;;;;;;;-145.49;100.00;62790.56;4970895;28;20039;-84
2022/09/25 11:45:35;;;;;;;3.33;3.03;;;;;;;-145.49;100.00;62790.56;4980762;28;20054;-83
2022/09/25 11:48:20;;;;;;;4.78;3.33;;;;;;;-145.49;100.00;62790.56;4967404;28;20034;-83
2022/09/25 11:51:34;;;;;;;3.40;2.72;;;;;;;-145.49;100.00;62790.56;4962073;28;20035;-83
2022/09/25 11:54:18;;;;;;;3.72;2.97;;;;;;;-145.49;100.00;62790.56;4968324;28;20045;-82
2022/09/25 11:56:56;;;;;;;3.40;3.10;;;;;;;-145.49;100.00;62790.56;4965990;28;20039;-82
2022/09/25 11:59:55;;;;;;;3.33;2.88;;;;;;;-145.49;100.00;62790.56;4973023;28;20563;-82